Time;durP1;ratioP1;P1;durP2;ratioP2;P2;SDS_P1;SDS_P2;PMS_P1;PMS_P2;Temp;Humidity;BMP_temperature;BMP_pressure;BME280_temperature;BME280_humidity;BME280_pressure;Samples;Min_cycle;Max_cycle;Signal;HPM_P1;HPM_P2
2022/03/19 00:01:14;;;;;;;64.75;35.92;;;;;;;4.16;68.84;102546.38;5056060;28;20048;-72
2022/03/19 00:03:42;;;;;;;65.88;35.33;;;;;;;4.25;68.57;102541.13;5073905;28;20152;-72
2022/03/19 00:06:11;;;;;;;71.70;37.05;;;;;;;4.24;68.74;102539.31;5073656;28;20094;-72
2022/03/19 00:08:39;;;;;;;70.43;37.35;;;;;;;4.26;68.63;102543.75;5073520;28;20037;-73
2022/03/19 00:11:07;;;;;;;66.90;35.60;;;;;;;4.27;68.70;102542.00;5073673;28;20143;-73
2022/03/19 00:13:36;;;;;;;74.70;38.00;;;;;;;4.14;69.81;102540.19;5073843;28;20047;-72
2022/03/19 00:16:05;;;;;;;71.18;36.92;;;;;;;4.14;69.20;102534.91;5073631;28;20056;-73
2022/03/19 00:18:34;;;;;;;78.20;38.28;;;;;;;4.08;69.57;102527.84;5073852;28;20082;-72
2022/03/19 00:21:03;;;;;;;73.43;37.72;;;;;;;4.15;69.26;102531.38;5073596;28;20070;-81
2022/03/19 00:23:31;;;;;;;74.13;37.67;;;;;;;4.07;69.62;102533.13;5073438;28;20423;-72
2022/03/19 00:26:00;;;;;;;71.78;37.55;;;;;;;3.98;70.04;102523.44;5073623;28;20037;-72
2022/03/19 00:28:28;;;;;;;73.22;38.70;;;;;;;3.92;69.94;102528.69;5073543;28;20519;-72
2022/03/19 00:30:58;;;;;;;71.95;37.47;;;;;;;4.01;69.35;102520.78;5073324;28;20048;-72
2022/03/19 00:33:26;;;;;;;76.13;39.38;;;;;;;4.08;68.79;102530.50;5073143;28;20036;-72
2022/03/19 00:35:56;;;;;;;77.10;40.83;;;;;;;3.93;69.53;102523.41;5073430;28;20101;-72
2022/03/19 00:38:24;;;;;;;74.63;38.45;;;;;;;3.83;70.39;102526.00;5055267;28;20063;-74
2022/03/19 00:40:53;;;;;;;71.07;39.08;;;;;;;3.96;69.34;102522.56;5073079;28;20048;-73
2022/03/19 00:43:22;;;;;;;71.22;37.90;;;;;;;3.81;69.61;102523.38;5072846;28;20389;-74
2022/03/19 00:45:50;;;;;;;68.65;38.88;;;;;;;3.68;70.49;102516.28;5072766;28;20037;-73
2022/03/19 00:48:21;;;;;;;74.15;38.03;;;;;;;3.58;71.21;102525.03;5072465;28;20044;-74
2022/03/19 00:50:50;;;;;;;74.95;39.25;;;;;;;3.47;71.86;102518.78;5073072;28;20044;-72
2022/03/19 00:53:19;;;;;;;80.05;39.85;;;;;;;3.44;72.06;102517.91;5072456;28;20064;-74
2022/03/19 00:55:51;;;;;;;;;;;;;;;3.43;72.72;102515.28;5073635;28;20075;-74
2022/03/19 00:58:19;;;;;;;72.40;37.67;;;;;;;3.47;72.37;102513.50;5072448;28;20373;-73
2022/03/19 01:00:47;;;;;;;71.90;36.92;;;;;;;3.48;72.93;102516.19;5072636;28;20106;-74
2022/03/19 01:03:16;;;;;;;72.38;38.17;;;;;;;3.51;73.07;102507.41;5072617;28;20152;-75
2022/03/19 01:05:45;;;;;;;71.82;38.65;;;;;;;3.47;72.81;102508.25;5054656;28;20520;-75
2022/03/19 01:08:13;;;;;;;73.43;38.85;;;;;;;3.51;72.71;102504.75;5072363;28;20048;-75
2022/03/19 01:10:43;;;;;;;72.45;38.95;;;;;;;3.41;72.90;102499.44;5072658;28;20041;-75
2022/03/19 01:13:12;;;;;;;79.95;38.90;;;;;;;3.38;73.28;102504.72;5072465;28;20045;-75
2022/03/19 01:15:40;;;;;;;71.78;39.00;;;;;;;3.46;73.27;102510.00;5072453;28;20048;-75
2022/03/19 01:18:08;;;;;;;75.00;40.30;;;;;;;3.53;72.71;102501.25;5072039;28;20071;-76
2022/03/19 01:20:37;;;;;;;73.82;39.92;;;;;;;3.57;72.78;102504.75;5071810;28;20052;-75
2022/03/19 01:23:05;;;;;;;69.82;38.35;;;;;;;3.76;70.65;102503.97;5072205;28;20101;-75
2022/03/19 01:25:33;;;;;;;74.85;38.95;;;;;;;3.65;71.90;102500.41;5072459;28;20094;-75
2022/03/19 01:28:03;;;;;;;69.30;37.92;;;;;;;3.83;70.41;102492.56;5072184;28;20420;-75
2022/03/19 01:30:31;;;;;;;69.47;37.13;;;;;;;3.67;70.83;102498.69;5054013;28;20101;-75
2022/03/19 01:32:59;;;;;;;72.45;38.25;;;;;;;3.55;71.72;102488.06;5072063;28;20075;-75
2022/03/19 01:35:27;;;;;;;74.35;39.08;;;;;;;3.65;71.56;102484.56;5072009;28;20792;-76
2022/03/19 01:37:56;;;;;;;74.90;39.63;;;;;;;3.68;71.41;102484.59;5071918;28;20397;-75
2022/03/19 01:40:24;;;;;;;72.50;39.22;;;;;;;3.69;71.09;102473.16;5071875;28;20075;-76
2022/03/19 01:42:53;;;;;;;75.65;38.92;;;;;;;3.57;71.70;102470.47;5071873;28;20504;-76
2022/03/19 01:45:25;;;;;;;73.53;38.20;;;;;;;3.50;72.40;102469.56;5071274;28;20048;-76
2022/03/19 01:47:54;;;;;;;74.15;36.28;;;;;;;3.76;70.79;102477.56;5072150;28;20044;-76
2022/03/19 01:50:24;;;;;;;66.38;38.55;;;;;;;3.71;71.35;102469.66;5071526;28;20140;-76
2022/03/19 01:52:53;;;;;;;66.93;37.15;;;;;;;3.65;71.49;102474.91;5072091;28;20064;-76
2022/03/19 01:55:24;;;;;;;70.28;37.58;;;;;;;3.65;71.67;102463.47;5071669;28;20123;-72
2022/03/19 01:57:54;;;;;;;74.25;38.75;;;;;;;3.54;72.37;102466.06;5071580;28;20047;-72
2022/03/19 02:00:25;;;;;;;69.13;37.15;;;;;;;3.59;72.67;102471.38;5071513;28;20048;-72
2022/03/19 02:02:56;;;;;;;75.13;39.00;;;;;;;3.58;72.55;102461.69;5071911;28;20094;-73
2022/03/19 02:05:25;;;;;;;66.57;36.40;;;;;;;3.54;72.79;102459.91;5071485;28;20444;-73
2022/03/19 02:07:54;;;;;;;70.20;33.88;;;;;;;3.57;70.66;102459.91;5071839;28;20539;-73
2022/03/19 02:10:24;;;;;;;61.50;33.92;;;;;;;3.58;69.84;102456.41;5071362;28;20090;-73
2022/03/19 02:12:55;;;;;;;68.15;35.05;;;;;;;3.63;71.77;102454.66;5071905;28;20102;-73
2022/03/19 02:15:25;;;;;;;70.80;37.28;;;;;;;3.79;70.96;102434.47;5071560;28;20128;-73
2022/03/19 02:17:53;;;;;;;74.50;38.10;;;;;;;3.76;71.17;102440.63;5071857;28;20056;-73
2022/03/19 02:20:22;;;;;;;69.38;34.42;;;;;;;3.77;70.28;102445.03;5071383;28;20044;-73
2022/03/19 02:25:37;;;;;;;64.63;35.13;;;;;;;3.79;69.74;102443.28;5071745;28;20132;-73
2022/03/19 02:28:06;;;;;;;62.80;34.03;;;;;;;3.81;70.06;102444.16;5053503;28;20077;-73
2022/03/19 02:30:39;;;;;;;61.47;33.75;;;;;;;3.72;70.77;102444.13;5070969;28;20040;-73
2022/03/19 02:33:07;;;;;;;61.35;33.63;;;;;;;3.66;70.65;102444.97;5074616;28;20131;-73
2022/03/19 02:35:35;;;;;;;62.25;33.88;;;;;;;3.63;71.55;102442.34;5075073;28;20051;-71
2022/03/19 02:38:04;;;;;;;62.17;33.85;;;;;;;3.64;71.07;102440.59;5075758;28;20052;-72
2022/03/19 02:40:32;;;;;;;62.85;34.20;;;;;;;3.56;70.54;102431.75;5075475;28;20078;-72
2022/03/19 02:43:01;;;;;;;66.57;32.50;;;;;;;3.51;69.92;102442.31;5075821;28;20366;-72
2022/03/19 02:45:30;;;;;;;52.33;30.00;;;;;;;3.61;67.90;102445.88;5075376;28;20071;-73
2022/03/19 02:47:58;;;;;;;51.95;28.75;;;;;;;3.76;66.95;102435.34;5075518;28;20051;-73
2022/03/19 02:50:31;;;;;;;54.35;28.65;;;;;;;3.85;65.58;102439.75;5057613;28;20412;-73
2022/03/19 02:53:01;;;;;;;51.67;29.40;;;;;;;3.88;64.86;102434.50;5075516;28;20094;-73
2022/03/19 02:55:32;;;;;;;54.00;29.17;;;;;;;3.88;64.31;102439.78;5075414;28;20136;-73
2022/03/19 02:58:02;;;;;;;50.88;27.85;;;;;;;3.94;64.16;102430.09;5075646;28;20041;-73
2022/03/19 03:00:31;;;;;;;55.53;28.35;;;;;;;3.83;63.84;102433.59;5075212;28;20044;-73
2022/03/19 03:03:00;;;;;;;50.05;28.23;;;;;;;3.72;63.90;102428.28;5075041;28;20039;-73
2022/03/19 03:05:28;;;;;;;49.88;27.23;;;;;;;3.75;63.27;102433.56;5074651;28;20047;-73
2022/03/19 03:07:57;;;;;;;48.65;25.63;;;;;;;3.68;63.95;102430.06;5074863;28;20094;-73
2022/03/19 03:10:25;;;;;;;50.95;26.80;;;;;;;3.64;64.22;102435.31;5074612;28;20068;-73
2022/03/19 03:12:53;;;;;;;49.88;26.42;;;;;;;3.76;63.84;102434.44;5074836;28;20136;-73
2022/03/19 03:15:24;;;;;;;54.97;25.77;;;;;;;3.77;64.68;102433.59;5074556;28;20064;-73
2022/03/19 03:17:52;;;;;;;48.15;25.50;;;;;;;3.83;64.41;102437.13;5075304;28;20114;-73
2022/03/19 03:20:21;;;;;;;43.72;24.30;;;;;;;3.86;63.33;102437.16;5074458;28;20045;-74
2022/03/19 03:22:50;;;;;;;49.88;27.08;;;;;;;3.74;65.32;102435.34;5074700;28;20037;-73
2022/03/19 03:25:18;;;;;;;50.38;27.55;;;;;;;3.73;65.70;102432.69;5074456;28;20072;-74
2022/03/19 03:27:48;;;;;;;49.05;26.40;;;;;;;3.78;65.42;102432.72;5074763;28;20060;-73
2022/03/19 03:30:18;;;;;;;53.08;26.90;;;;;;;3.94;64.64;102434.50;5074470;28;20398;-74
2022/03/19 03:32:48;;;;;;;43.70;25.52;;;;;;;3.90;64.81;102430.97;5074650;28;20097;-73
2022/03/19 03:35:16;;;;;;;47.35;26.25;;;;;;;4.00;63.84;102427.47;5074614;28;20064;-75
2022/03/19 03:37:45;;;;;;;48.53;25.48;;;;;;;4.05;62.79;102426.59;5056684;28;20052;-76
2022/03/19 03:40:13;;;;;;;41.90;23.77;;;;;;;3.98;62.49;102426.59;5056971;28;20052;-75
2022/03/19 03:42:42;;;;;;;46.80;24.92;;;;;;;3.90;62.69;102427.47;5074528;28;20036;-76
2022/03/19 03:45:10;;;;;;;53.63;25.63;;;;;;;3.83;63.29;102420.41;5073664;28;20115;-73
2022/03/19 03:47:38;;;;;;;52.72;25.60;;;;;;;3.78;63.39;102417.75;5073715;28;20052;-73
2022/03/19 03:50:10;;;;;;;63.08;28.00;;;;;;;3.91;62.79;102414.25;5074479;28;20048;-73
2022/03/19 03:52:38;;;;;;;65.20;27.85;;;;;;;3.93;62.31;102415.13;5073993;28;20072;-74
2022/03/19 03:55:08;;;;;;;55.25;26.70;;;;;;;3.86;62.82;102416.03;5074364;28;20056;-75
2022/03/19 03:57:37;;;;;;;53.40;26.85;;;;;;;3.86;62.13;102404.56;5073888;28;20051;-75
2022/03/19 04:00:08;;;;;;;55.97;27.83;;;;;;;3.99;61.83;102409.88;5074063;28;20037;-74
2022/03/19 04:02:36;;;;;;;54.08;26.40;;;;;;;3.87;61.93;102411.63;5073859;28;20044;-75
2022/03/19 04:05:06;;;;;;;55.72;25.95;;;;;;;3.90;61.60;102422.19;5073796;28;20515;-75
2022/03/19 04:07:37;;;;;;;58.72;26.33;;;;;;;3.67;61.91;102406.31;5073373;28;20488;-75
2022/03/19 04:10:06;;;;;;;57.03;27.27;;;;;;;3.61;62.66;102424.75;5073806;28;20047;-75
2022/03/19 04:12:36;;;;;;;53.72;25.10;;;;;;;3.59;62.89;102422.13;5073844;28;20044;-75
2022/03/19 04:15:05;;;;;;;44.88;23.70;;;;;;;3.64;62.08;102422.09;5073613;28;20412;-75
2022/03/19 04:17:34;;;;;;;45.88;23.88;;;;;;;3.83;61.45;102421.28;5073253;28;20410;-73
2022/03/19 04:20:05;;;;;;;48.35;23.40;;;;;;;3.98;61.10;102425.72;5073768;28;20045;-72
2022/03/19 04:22:36;;;;;;;44.72;23.42;;;;;;;4.02;60.72;102420.44;5055649;28;20143;-72
2022/03/19 04:25:06;;;;;;;47.60;24.73;;;;;;;3.94;60.71;102419.53;5073555;28;20426;-75
2022/03/19 04:27:34;;;;;;;46.90;23.45;;;;;;;3.98;60.61;102420.44;5072894;28;20053;-75
2022/03/19 04:30:03;;;;;;;53.58;25.50;;;;;;;3.94;60.66;102419.53;5073307;28;20119;-74
2022/03/19 04:32:31;;;;;;;57.40;25.48;;;;;;;3.82;61.26;102419.53;5073099;28;20041;-74
2022/03/19 04:36:29;;;;;;;49.30;24.10;;;;;;;3.81;61.66;102420.41;5073437;28;20068;-74
2022/03/19 04:37:51;;;;;;;52.40;22.58;;;;;;;3.77;60.97;102420.41;5073493;28;20056;-73
2022/03/19 04:40:19;;;;;;;45.40;22.60;;;;;;;3.67;61.50;102419.50;5073266;28;20221;-82
2022/03/19 04:42:47;;;;;;;39.90;21.15;;;;;;;3.73;61.52;102409.81;5055389;28;20049;-74
2022/03/19 04:45:16;;;;;;;37.95;20.60;;;;;;;3.81;60.87;102409.84;5072949;28;20144;-74
2022/03/19 04:47:44;;;;;;;40.83;20.52;;;;;;;3.85;59.86;102416.00;5072576;28;20155;-74
2022/03/19 04:50:12;;;;;;;40.40;21.00;;;;;;;3.82;60.42;102414.25;5073103;28;20045;-74
2022/03/19 04:52:42;;;;;;;40.92;21.13;;;;;;;3.94;60.16;102416.88;5072710;28;20093;-74
2022/03/19 04:55:12;;;;;;;46.85;22.13;;;;;;;4.00;60.12;102418.69;5071985;28;20048;-74
2022/03/19 04:57:40;;;;;;;44.67;22.00;;;;;;;4.05;59.62;102421.31;5072594;28;20057;-75
2022/03/19 05:00:13;;;;;;;39.63;21.35;;;;;;;3.96;60.02;102417.81;5072601;28;20076;-74
2022/03/19 05:02:44;;;;;;;41.83;22.60;;;;;;;3.98;60.09;102423.97;5072536;28;20117;-74
2022/03/19 05:05:13;;;;;;;41.65;21.25;;;;;;;3.92;60.25;102421.28;5072833;28;20466;-75
2022/03/19 05:07:41;;;;;;;47.20;23.10;;;;;;;3.89;60.24;102416.03;5072557;28;20037;-75
2022/03/19 05:12:57;;;;;;;39.47;20.00;;;;;;;4.03;59.85;102427.47;5072702;28;20040;-73
2022/03/19 05:15:26;;;;;;;40.92;21.52;;;;;;;4.26;59.33;102421.34;5072421;28;20060;-73
2022/03/19 05:17:54;;;;;;;43.47;21.50;;;;;;;4.32;58.73;102423.97;5071976;28;20059;-73
2022/03/19 05:20:23;;;;;;;49.22;23.20;;;;;;;4.35;58.76;102421.34;5072279;28;20136;-78
2022/03/19 05:22:51;;;;;;;50.25;24.60;;;;;;;4.32;59.32;102426.63;5072509;28;20070;-72
2022/03/19 05:25:21;;;;;;;53.33;24.58;;;;;;;4.28;59.24;102430.16;5072630;28;20431;-72
2022/03/19 05:27:49;;;;;;;48.60;24.77;;;;;;;4.35;59.11;102424.00;5072159;28;20401;-71
2022/03/19 05:30:21;;;;;;;43.38;22.67;;;;;;;4.42;58.33;102428.38;5072727;28;20110;-72
2022/03/19 05:32:49;;;;;;;46.60;23.58;;;;;;;4.26;58.77;102437.19;5054692;28;20052;-73
2022/03/19 05:35:18;;;;;;;46.05;23.67;;;;;;;4.19;59.00;102431.03;5072366;28;20051;-73
2022/03/19 05:37:47;;;;;;;42.45;22.08;;;;;;;4.14;59.07;102437.16;5071770;28;20059;-72
2022/03/19 05:40:15;;;;;;;46.90;24.38;;;;;;;4.18;58.87;102445.13;5072350;28;20081;-74
2022/03/19 05:42:47;;;;;;;42.25;22.73;;;;;;;4.20;59.08;102447.75;5072032;28;20211;-74
2022/03/19 05:45:16;;;;;;;44.88;22.90;;;;;;;4.19;59.11;102435.44;5071993;28;20075;-73
2022/03/19 05:47:44;;;;;;;38.88;21.65;;;;;;;4.16;59.25;102431.03;5071647;28;20068;-74
2022/03/19 05:50:14;;;;;;;40.65;22.98;;;;;;;4.34;58.99;102435.41;5072161;28;20090;-72
2022/03/19 05:52:42;;;;;;;44.53;22.90;;;;;;;4.72;57.10;102432.75;5071308;28;20048;-72
2022/03/19 05:55:10;;;;;;;40.33;22.58;;;;;;;4.86;56.85;102430.97;5072000;28;20045;-73
2022/03/19 05:57:40;;;;;;;48.22;22.65;;;;;;;5.17;56.11;102422.97;5071750;28;20470;-73
2022/03/19 06:00:11;;;;;;;42.53;22.30;;;;;;;5.38;55.40;102428.16;5072128;28;20067;-73
2022/03/19 06:02:41;;;;;;;41.03;22.92;;;;;;;5.53;54.90;102437.81;5071472;28;20044;-74
2022/03/19 06:05:10;;;;;;;47.72;24.38;;;;;;;5.57;54.47;102434.25;5070609;28;20076;-74
2022/03/19 06:07:39;;;;;;;43.20;22.85;;;;;;;5.69;54.19;102433.31;5071098;28;20043;-75
2022/03/19 06:10:08;;;;;;;39.53;22.77;;;;;;;5.77;53.31;102444.75;5071353;28;20055;-73
2022/03/19 06:12:37;;;;;;;43.83;22.98;;;;;;;5.71;53.87;102435.09;5071546;28;20113;-74
2022/03/19 06:15:06;;;;;;;42.83;24.45;;;;;;;5.92;53.55;102438.53;5071662;28;20097;-73
2022/03/19 06:17:37;;;;;;;44.05;24.08;;;;;;;6.20;52.49;102445.41;5071768;28;20099;-74
2022/03/19 06:20:07;;;;;;;47.28;24.17;;;;;;;6.18;52.20;102441.88;5071726;28;20051;-74
2022/03/19 06:22:35;;;;;;;44.65;24.05;;;;;;;5.95;53.65;102443.78;5071448;28;20417;-75
2022/03/19 06:25:03;;;;;;;42.83;23.90;;;;;;;5.91;54.01;102442.06;5071660;28;20044;-74
2022/03/19 06:27:32;;;;;;;45.30;24.13;;;;;;;5.92;53.95;102444.69;5053513;28;20044;-73
2022/03/19 06:30:01;;;;;;;45.05;24.50;;;;;;;6.14;53.78;102440.13;5071080;28;20044;-72
2022/03/19 06:32:33;;;;;;;47.28;25.13;;;;;;;6.28;53.10;102442.69;5071171;28;20385;-75
2022/03/19 06:35:03;;;;;;;46.92;26.38;;;;;;;6.31;53.36;102442.66;5070940;28;20048;-74
2022/03/19 06:37:31;;;;;;;48.72;25.80;;;;;;;6.41;53.22;102443.47;5069912;28;20405;-74
2022/03/19 06:40:06;;;;;;;45.78;24.40;;;;;;;6.48;52.59;102445.19;5071136;28;20124;-74
2022/03/19 06:42:35;;;;;;;39.33;24.33;;;;;;;6.47;52.64;102444.31;5052640;28;20128;-74
2022/03/19 06:45:04;;;;;;;44.55;24.80;;;;;;;6.45;52.82;102445.19;5070800;28;20053;-72
2022/03/19 06:47:32;;;;;;;42.78;24.85;;;;;;;6.41;52.92;102444.34;5070661;28;20102;-73
2022/03/19 06:50:03;;;;;;;43.55;24.25;;;;;;;6.39;52.79;102450.56;5070378;28;20040;-73
2022/03/19 06:52:35;;;;;;;49.83;25.65;;;;;;;6.52;52.47;102453.09;5070720;28;20036;-71
2022/03/19 06:55:04;;;;;;;39.40;22.60;;;;;;;6.61;52.42;102452.13;5071093;28;20045;-75
2022/03/19 06:57:32;;;;;;;40.95;24.02;;;;;;;6.41;52.41;102441.69;5070336;28;20068;-76
2022/03/19 07:00:01;;;;;;;41.33;23.88;;;;;;;6.43;52.92;102449.63;5052804;28;20138;-75
2022/03/19 07:02:33;;;;;;;39.22;23.48;;;;;;;6.57;52.19;102443.34;5070447;28;20045;-75
2022/03/19 07:05:02;;;;;;;38.50;22.60;;;;;;;6.56;51.84;102448.63;5070879;28;20090;-75
2022/03/19 07:07:30;;;;;;;39.22;22.40;;;;;;;6.53;52.39;102440.72;5071274;28;20068;-75
2022/03/19 07:10:00;;;;;;;36.63;20.80;;;;;;;6.65;51.97;102443.25;5070571;28;20050;-75
2022/03/19 07:12:28;;;;;;;37.45;21.77;;;;;;;6.70;51.50;102441.44;5071048;28;20444;-75
2022/03/19 07:14:56;;;;;;;42.85;23.25;;;;;;;6.77;51.58;102442.28;5070394;28;20075;-74
2022/03/19 07:17:24;;;;;;;39.53;22.63;;;;;;;6.71;52.12;102448.50;5070642;28;20056;-71
2022/03/19 07:19:53;;;;;;;38.33;22.05;;;;;;;6.80;52.29;102451.06;5072737;28;20462;-72
2022/03/19 07:22:21;;;;;;;37.55;22.08;;;;;;;6.82;51.86;102446.63;5074621;28;20481;-72
2022/03/19 07:24:49;;;;;;;36.00;21.42;;;;;;;6.91;51.56;102455.38;5073987;28;20056;-71
2022/03/19 07:27:21;;;;;;;37.45;21.42;;;;;;;6.88;51.52;102448.34;5074659;28;20045;-72
2022/03/19 07:29:50;;;;;;;41.42;22.38;;;;;;;6.82;51.20;102449.28;5074230;28;20041;-72
2022/03/19 07:32:18;;;;;;;37.45;21.92;;;;;;;6.76;51.51;102451.13;5074617;28;20522;-72
2022/03/19 07:34:47;;;;;;;38.72;22.00;;;;;;;6.94;51.00;102452.69;5074194;28;20045;-73
2022/03/19 07:37:15;;;;;;;38.40;20.90;;;;;;;7.08;50.22;102454.31;5074191;28;20079;-73
2022/03/19 07:39:44;;;;;;;38.47;21.15;;;;;;;6.97;50.31;102456.22;5074029;28;20044;-73
2022/03/19 07:42:11;;;;;;;34.83;20.52;;;;;;;6.97;49.87;102453.56;5074470;28;20090;-72
2022/03/19 07:44:43;;;;;;;32.40;19.30;;;;;;;6.96;49.34;102461.53;5073694;28;20047;-71
2022/03/19 07:47:11;;;;;;;36.53;19.80;;;;;;;6.78;49.78;102455.53;5074398;28;20045;-71
2022/03/19 07:49:40;;;;;;;33.00;20.77;;;;;;;6.82;49.74;102457.22;5073773;28;20482;-73
2022/03/19 07:52:08;;;;;;;33.42;18.70;;;;;;;7.00;49.28;102455.28;5073832;28;20102;-73
2022/03/19 07:54:38;;;;;;;31.90;18.73;;;;;;;7.19;48.79;102456.84;5073761;28;20078;-80
2022/03/19 07:57:07;;;;;;;33.83;19.83;;;;;;;7.16;48.75;102463.09;5074205;28;20445;-73
2022/03/19 07:59:36;;;;;;;35.08;20.52;;;;;;;7.03;49.09;102461.44;5073841;28;20044;-72
2022/03/19 08:02:07;;;;;;;35.58;20.00;;;;;;;7.06;49.15;102465.84;5074278;28;20047;-74
2022/03/19 08:04:36;;;;;;;32.28;19.02;;;;;;;7.01;48.59;102470.31;5055780;28;20135;-76
2022/03/19 08:07:04;;;;;;;32.10;19.08;;;;;;;6.96;49.01;102464.19;5073656;28;20040;-74
2022/03/19 08:09:33;;;;;;;35.13;19.75;;;;;;;7.15;48.85;102465.75;5073422;28;20092;-71
2022/03/19 08:12:01;;;;;;;33.45;18.77;;;;;;;7.37;48.28;102467.28;5073168;28;20473;-72
2022/03/19 08:14:31;;;;;;;33.55;18.33;;;;;;;7.62;47.58;102467.81;5073448;28;20045;-76
2022/03/19 08:17:00;;;;;;;36.22;20.20;;;;;;;7.73;46.78;102467.72;5078682;28;20066;-74
2022/03/19 08:19:31;;;;;;;31.08;18.52;;;;;;;7.86;46.79;102469.28;5074334;28;20466;-76
2022/03/19 08:22:19;;;;;;;33.92;19.30;;;;;;;7.74;46.29;102456.19;5073164;28;20051;-76
2022/03/19 08:24:53;;;;;;;;;;;;;;;7.98;46.31;102466.47;5072866;28;20121;-76
2022/03/19 08:27:22;;;;;;;31.35;19.08;;;;;;;7.89;46.68;102469.25;5073364;28;19968;-77
2022/03/19 08:29:52;;;;;;;32.47;19.25;;;;;;;7.99;46.15;102470.00;5072644;28;20045;-74
2022/03/19 08:32:20;;;;;;;32.65;19.33;;;;;;;8.12;46.12;102473.38;5072973;28;20532;-74
2022/03/19 08:34:52;;;;;;;34.50;20.48;;;;;;;8.22;45.78;102464.34;5072389;28;20486;-75
2022/03/19 08:37:21;;;;;;;34.65;19.73;;;;;;;8.20;45.57;102471.44;5073146;28;20041;-73
2022/03/19 08:42:37;;;;;;;30.83;18.95;;;;;;;8.65;44.91;102469.88;5073321;28;20539;-73
2022/03/19 08:45:06;;;;;;;31.98;18.30;;;;;;;8.86;44.71;102468.63;5054757;28;20131;-74
2022/03/19 08:47:35;;;;;;;30.92;18.60;;;;;;;8.58;44.99;102468.22;5072705;28;20066;-79
2022/03/19 08:50:07;;;;;;;32.63;18.65;;;;;;;8.76;44.98;102465.25;5072176;28;20097;-74
2022/03/19 08:52:36;;;;;;;33.13;20.13;;;;;;;8.88;44.58;102464.19;5073692;28;20055;-75
2022/03/19 08:55:05;;;;;;;29.83;18.10;;;;;;;8.68;44.72;102469.81;5054720;28;20091;-73
2022/03/19 08:57:33;;;;;;;30.55;18.58;;;;;;;8.62;45.08;102463.75;5072704;28;20056;-74
2022/03/19 09:00:02;;;;;;;32.83;19.20;;;;;;;8.69;45.49;102470.72;5071931;28;20043;-74
2022/03/19 09:02:41;;;;;;;31.48;19.75;;;;;;;9.01;44.61;102463.03;5072526;28;20051;-74
2022/03/19 09:05:11;;;;;;;28.85;17.25;;;;;;;9.04;43.92;102460.31;5072501;28;20040;-74
2022/03/19 09:07:40;;;;;;;32.35;18.85;;;;;;;8.91;44.40;102460.56;5072368;28;20374;-75
2022/03/19 09:10:09;;;;;;;30.05;17.25;;;;;;;8.89;44.05;102460.59;5072251;28;20050;-74
2022/03/19 09:12:40;;;;;;;30.73;17.10;;;;;;;8.92;43.74;102457.88;5071960;28;20534;-73
2022/03/19 09:15:10;;;;;;;30.55;17.65;;;;;;;8.85;43.81;102456.22;5072144;28;20047;-71
2022/03/19 09:17:40;;;;;;;27.42;16.80;;;;;;;8.87;43.42;102457.06;5072742;28;20083;-71
2022/03/19 09:20:10;;;;;;;26.85;16.65;;;;;;;8.85;43.74;102451.78;5072020;28;20082;-75
2022/03/19 09:22:40;;;;;;;29.83;17.98;;;;;;;8.89;44.22;102457.94;5072549;28;20075;-77
2022/03/19 09:25:09;;;;;;;27.88;16.35;;;;;;;9.24;43.37;102443.94;5072231;28;20543;-77
2022/03/19 09:27:39;;;;;;;28.63;17.55;;;;;;;9.41;42.54;102451.59;5072234;28;20094;-75
2022/03/19 09:30:11;;;;;;;26.27;15.70;;;;;;;9.39;42.11;102453.44;5072157;28;20037;-74
2022/03/19 09:32:47;;;;;;;26.92;14.82;;;;;;;9.31;40.82;102448.25;5071718;28;20064;-72
2022/03/19 09:35:33;;;;;;;29.23;17.60;;;;;;;9.31;42.42;102458.03;5071608;28;20032;-73
2022/03/19 09:38:03;;;;;;;26.70;17.05;;;;;;;9.22;43.07;102445.75;5071424;28;20466;-72
2022/03/19 09:40:31;;;;;;;27.13;16.38;;;;;;;9.27;41.63;102459.00;5071650;28;20114;-71
2022/03/19 09:43:00;;;;;;;30.13;17.75;;;;;;;9.21;43.46;102449.34;5070647;28;20048;-72
2022/03/19 09:45:29;;;;;;;28.33;17.63;;;;;;;9.01;44.06;102460.38;5070949;28;20143;-73
2022/03/19 09:47:58;;;;;;;27.95;17.00;;;;;;;9.18;43.99;102454.72;5071024;28;20123;-72
2022/03/19 09:50:26;;;;;;;26.20;16.20;;;;;;;9.07;43.01;102457.59;5071067;28;20104;-70
2022/03/19 09:52:57;;;;;;;31.02;16.75;;;;;;;9.00;42.83;102455.97;5070659;28;20493;-72
2022/03/19 09:55:30;;;;;;;30.00;17.10;;;;;;;8.97;43.29;102461.31;5070927;28;20390;-71
2022/03/19 09:58:00;;;;;;;30.17;17.85;;;;;;;8.99;43.51;102459.53;5053160;28;20102;-72
2022/03/19 10:00:28;;;;;;;29.23;17.80;;;;;;;8.95;43.96;102455.16;5070840;28;20469;-73
2022/03/19 10:02:57;;;;;;;30.48;17.02;;;;;;;8.79;44.41;102451.03;5070732;28;20040;-72
2022/03/19 10:11:02;;;;;;;25.85;16.33;;;;;;;9.11;42.57;102442.44;5071393;28;20094;-78
2022/03/19 10:13:33;;;;;;;29.85;15.88;;;;;;;9.18;42.29;102438.75;5071714;28;20424;-76
2022/03/19 10:16:02;;;;;;;23.98;15.25;;;;;;;9.17;41.43;102443.22;5071128;28;20051;-73
2022/03/19 10:18:31;;;;;;;22.80;13.82;;;;;;;9.23;40.10;102441.31;5071841;28;20044;-74
2022/03/19 10:21:02;;;;;;;21.15;13.35;;;;;;;9.15;39.25;102449.44;5071231;28;20048;-74
2022/03/19 10:23:39;;;;;;;21.98;13.40;;;;;;;9.14;38.59;102447.69;5075811;28;20044;-80
2022/03/19 10:26:22;;;;;;;21.67;13.88;;;;;;;9.20;39.29;102446.72;5089766;28;20077;-74
2022/03/19 10:28:57;;;;;;;28.33;14.55;;;;;;;9.26;38.92;102446.56;5090456;28;20040;-71
2022/03/19 10:31:31;;;;;;;22.10;14.02;;;;;;;9.18;38.82;102439.63;5090674;28;20036;-74
2022/03/19 10:33:59;;;;;;;25.92;15.13;;;;;;;9.12;39.07;102441.53;5090142;28;20048;-76
2022/03/19 10:36:32;;;;;;;27.33;15.07;;;;;;;9.15;39.17;102441.47;5090490;28;20097;-72
2022/03/19 10:39:01;;;;;;;;;;;;;;;9.03;39.17;102439.91;5090721;28;20036;-75
2022/03/19 10:41:35;;;;;;;22.60;13.85;;;;;;;9.11;39.08;102435.31;5089893;28;19920;-75
2022/03/19 10:44:14;;;;;;;25.23;14.90;;;;;;;9.18;39.09;102425.44;5090474;28;20408;-76
2022/03/19 10:46:49;;;;;;;23.42;14.27;;;;;;;9.29;38.85;102425.22;5089802;28;20055;-75
2022/03/19 10:49:18;;;;;;;23.15;14.85;;;;;;;9.29;38.60;102433.22;5089378;28;20040;-76
2022/03/19 10:51:49;;;;;;;23.80;15.75;;;;;;;9.41;38.23;102425.84;5090026;28;20362;-71
2022/03/19 10:54:17;;;;;;;26.85;15.18;;;;;;;9.43;38.31;102428.47;5092654;28;20050;-75
2022/03/19 10:56:49;;;;;;;25.40;14.93;;;;;;;9.46;37.39;102417.78;5093144;28;20048;-75
2022/03/19 10:59:17;;;;;;;24.30;14.80;;;;;;;9.24;37.90;102421.75;5094146;28;20093;-75
2022/03/19 11:01:48;;;;;;;21.92;14.00;;;;;;;9.31;36.98;102416.28;5094715;28;20040;-72
2022/03/19 11:04:19;;;;;;;20.20;11.93;;;;;;;9.47;34.55;102406.19;5094269;28;20040;-73
2022/03/19 11:06:51;;;;;;;20.63;13.02;;;;;;;9.39;35.01;102401.03;5095053;28;20093;-72
2022/03/19 11:09:23;;;;;;;21.20;12.95;;;;;;;9.37;34.81;102392.19;5076869;28;20135;-70
2022/03/19 11:11:57;;;;;;;22.77;12.30;;;;;;;9.47;35.37;102398.22;5094164;28;20044;-70
2022/03/19 11:14:28;;;;;;;21.85;13.80;;;;;;;9.51;36.05;102391.88;5093939;28;20048;-72
2022/03/19 11:17:27;;;;;;;23.23;13.73;;;;;;;9.55;36.28;102385.56;5094894;28;20135;-72
2022/03/19 11:19:58;;;;;;;30.40;15.32;;;;;;;9.71;36.23;102381.66;5076312;28;20048;-72
2022/03/19 11:22:28;;;;;;;25.92;14.38;;;;;;;9.73;36.59;102377.16;5094546;28;20101;-72
2022/03/19 11:25:03;;;;;;;27.42;14.20;;;;;;;9.67;36.98;102374.66;5094478;28;20492;-70
2022/03/19 11:27:36;;;;;;;25.42;15.18;;;;;;;9.67;37.14;102369.34;5094137;28;20068;-71
2022/03/19 11:30:06;;;;;;;25.48;14.65;;;;;;;9.71;37.42;102368.34;5094232;28;20100;-71
2022/03/19 11:32:35;;;;;;;23.00;14.60;;;;;;;9.81;36.66;102358.34;5093960;28;20040;-72
2022/03/19 11:35:05;;;;;;;22.48;13.57;;;;;;;9.96;35.53;102359.78;5094196;28;20093;-71
2022/03/19 11:38:00;;;;;;;24.45;13.80;;;;;;;10.07;35.27;102355.06;5094085;28;20064;-71
2022/03/19 11:40:35;;;;;;;21.45;13.23;;;;;;;10.09;35.39;102353.22;5091105;28;20062;-71
2022/03/19 11:43:31;;;;;;;22.05;12.80;;;;;;;10.14;35.26;102342.47;5094074;28;20046;-72